createdAt,value
2019-05-18T00:01:42.276Z,31.03
2019-05-18T00:04:11.608Z,30.83
2019-05-18T00:06:40.875Z,28.33
2019-05-18T00:09:10.187Z,28.70
2019-05-18T00:11:39.480Z,28.37
2019-05-18T00:14:08.867Z,26.43
2019-05-18T00:16:38.347Z,29.00
2019-05-18T00:19:07.716Z,26.23
2019-05-18T00:21:37.023Z,28.90
2019-05-18T00:24:06.482Z,27.63
2019-05-18T00:26:35.760Z,27.20
2019-05-18T00:29:05.146Z,29.70
2019-05-18T00:31:34.480Z,31.23
2019-05-18T00:34:03.911Z,30.53
2019-05-18T00:36:33.258Z,28.20
2019-05-18T00:39:02.577Z,30.97
2019-05-18T00:41:31.787Z,30.60
2019-05-18T00:44:01.157Z,27.77
2019-05-18T00:46:30.485Z,31.17
2019-05-18T00:49:00.618Z,32.53
2019-05-18T00:51:30.360Z,30.53
2019-05-18T00:53:59.762Z,32.73
2019-05-18T00:56:29.119Z,31.07
2019-05-18T00:58:58.449Z,33.83
2019-05-18T01:01:27.817Z,33.77
2019-05-18T01:03:57.011Z,28.77
2019-05-18T01:06:26.323Z,27.97
2019-05-18T01:08:55.694Z,30.83
2019-05-18T01:11:24.996Z,33.00
2019-05-18T01:13:54.339Z,32.87
2019-05-18T01:16:23.761Z,31.63
2019-05-18T01:18:53.136Z,29.83
2019-05-18T01:21:22.483Z,32.60
2019-05-18T01:23:54.935Z,31.07
2019-05-18T01:26:24.317Z,29.07
2019-05-18T01:28:57.406Z,29.97
2019-05-18T01:31:26.833Z,34.07
2019-05-18T01:33:56.160Z,29.93
2019-05-18T01:36:25.393Z,31.20
2019-05-18T01:38:54.705Z,31.43
2019-05-18T01:41:24.186Z,27.33
2019-05-18T01:43:53.541Z,34.33
2019-05-18T01:46:22.863Z,27.53
2019-05-18T01:48:52.173Z,31.97
2019-05-18T01:51:21.367Z,32.93
2019-05-18T01:53:50.783Z,33.63
2019-05-18T01:56:20.019Z,34.37
2019-05-18T01:58:49.331Z,32.90
2019-05-18T02:01:18.720Z,34.50
2019-05-18T02:03:47.943Z,28.97
2019-05-18T02:06:17.285Z,32.37
2019-05-18T02:08:46.644Z,33.40
2019-05-18T02:11:15.961Z,31.93
2019-05-18T02:13:45.316Z,31.20
2019-05-18T02:16:14.744Z,30.70
2019-05-18T02:18:44.124Z,29.27
2019-05-18T02:21:13.562Z,36.33
2019-05-18T02:23:42.936Z,34.63
2019-05-18T02:26:12.228Z,31.70
2019-05-18T02:28:41.746Z,33.87
2019-05-18T02:31:11.130Z,33.20
2019-05-18T02:33:40.460Z,32.83
2019-05-18T02:36:09.827Z,30.57
2019-05-18T02:38:39.282Z,29.63
2019-05-18T02:41:08.674Z,29.30
2019-05-18T02:43:38.026Z,26.73
2019-05-18T02:46:07.366Z,26.83
2019-05-18T02:48:49.026Z,31.97
2019-05-18T02:51:11.157Z,28.77
2019-05-18T02:53:38.627Z,31.70
2019-05-18T02:56:07.937Z,33.77
2019-05-18T02:58:37.259Z,32.50
2019-05-18T03:01:06.691Z,29.27
2019-05-18T03:03:36.106Z,31.23
2019-05-18T03:06:05.683Z,32.17
2019-05-18T03:08:34.955Z,32.43
2019-05-18T03:11:04.619Z,36.47
2019-05-18T03:13:34.052Z,31.27
2019-05-18T03:16:03.501Z,29.00
2019-05-18T03:18:32.875Z,36.07
2019-05-18T03:21:02.266Z,26.70
2019-05-18T03:23:31.615Z,30.97
2019-05-18T03:26:00.936Z,32.57
2019-05-18T03:28:30.307Z,27.80
2019-05-18T03:30:59.682Z,33.33
2019-05-18T03:33:30.378Z,32.70
2019-05-18T03:36:00.040Z,33.37
2019-05-18T03:38:29.442Z,30.47
2019-05-18T03:40:58.807Z,31.50
2019-05-18T03:43:28.152Z,30.13
2019-05-18T03:45:57.558Z,35.87
2019-05-18T03:48:26.860Z,32.83
2019-05-18T03:50:56.211Z,36.37
2019-05-18T03:53:25.576Z,28.03
2019-05-18T03:55:54.886Z,28.00
2019-05-18T03:58:24.280Z,29.07
2019-05-18T04:00:53.580Z,32.00
2019-05-18T04:03:22.957Z,24.93
2019-05-18T04:05:52.722Z,32.63
2019-05-18T04:08:22.146Z,32.33
2019-05-18T04:10:51.537Z,25.47
2019-05-18T04:13:21.116Z,32.83
2019-05-18T04:15:50.404Z,33.53
2019-05-18T04:18:19.687Z,34.47
2019-05-18T04:20:49.092Z,25.47
2019-05-18T04:23:18.372Z,28.60
2019-05-18T04:25:47.859Z,29.77
2019-05-18T04:28:17.156Z,39.33
2019-05-18T04:30:46.489Z,32.50
2019-05-18T04:33:15.869Z,31.80
2019-05-18T04:35:45.225Z,31.70
2019-05-18T04:38:14.614Z,26.20
2019-05-18T04:40:43.946Z,34.00
2019-05-18T04:43:13.185Z,30.03
2019-05-18T04:45:42.444Z,33.77
2019-05-18T04:48:11.746Z,30.47
2019-05-18T04:50:41.111Z,35.47
2019-05-18T04:53:10.355Z,27.17
2019-05-18T04:55:39.785Z,37.80
2019-05-18T04:58:09.074Z,29.93
2019-05-18T05:00:38.438Z,36.57
2019-05-18T05:03:07.842Z,39.33
2019-05-18T05:05:37.237Z,30.13
2019-05-18T05:08:06.712Z,32.23
2019-05-18T05:10:36.028Z,31.17
2019-05-18T05:13:05.394Z,27.67
2019-05-18T05:15:34.844Z,34.93
2019-05-18T05:18:04.347Z,32.70
2019-05-18T05:20:33.765Z,34.40
2019-05-18T05:23:03.238Z,39.23
2019-05-18T05:25:32.766Z,33.53
2019-05-18T05:28:02.164Z,29.03
2019-05-18T05:30:31.655Z,34.10
2019-05-18T05:33:00.940Z,33.20
2019-05-18T05:35:30.379Z,38.40
2019-05-18T05:37:59.785Z,32.53
2019-05-18T05:40:29.085Z,38.63
2019-05-18T05:42:58.388Z,36.23
2019-05-18T05:45:27.663Z,32.77
2019-05-18T05:47:57.398Z,39.83
2019-05-18T05:50:35.210Z,37.70
2019-05-18T05:52:57.898Z,36.33
2019-05-18T05:55:27.256Z,39.23
2019-05-18T05:57:56.619Z,36.77
2019-05-18T06:00:25.973Z,41.90
2019-05-18T06:02:55.283Z,39.97
2019-05-18T06:05:24.608Z,41.97
2019-05-18T06:07:56.562Z,40.40
2019-05-18T06:10:25.981Z,44.23
2019-05-18T06:12:55.439Z,38.90
2019-05-18T06:15:24.918Z,41.73
2019-05-18T06:17:54.334Z,38.47
2019-05-18T06:20:23.687Z,40.13
2019-05-18T06:22:53.293Z,39.73
2019-05-18T06:25:22.805Z,45.00
2019-05-18T06:27:52.091Z,48.77
2019-05-18T06:30:21.590Z,45.20
2019-05-18T06:32:51.061Z,39.77
2019-05-18T06:35:21.392Z,38.97
2019-05-18T06:37:50.972Z,42.70
2019-05-18T06:40:20.464Z,39.10
2019-05-18T06:42:49.877Z,45.70
2019-05-18T06:45:19.318Z,44.90
2019-05-18T06:47:48.677Z,41.37
2019-05-18T06:50:23.404Z,41.13
2019-05-18T06:52:52.809Z,44.33
2019-05-18T06:55:22.238Z,40.47
2019-05-18T06:57:52.279Z,46.93
2019-05-18T07:00:21.637Z,40.33
2019-05-18T07:02:51.041Z,44.87
2019-05-18T07:05:20.542Z,39.97
2019-05-18T07:07:51.550Z,44.03
2019-05-18T07:10:21.102Z,41.50
2019-05-18T07:12:52.454Z,42.67
2019-05-18T07:15:21.912Z,42.27
2019-05-18T07:17:51.269Z,41.40
2019-05-18T07:20:23.712Z,43.93
2019-05-18T07:22:53.181Z,42.33
2019-05-18T07:25:22.798Z,40.93
2019-05-18T07:27:53.354Z,45.57
2019-05-18T07:30:22.769Z,42.90
2019-05-18T07:32:52.431Z,41.60
2019-05-18T07:35:23.766Z,39.03
2019-05-18T07:37:53.384Z,39.97
2019-05-18T07:40:23.040Z,44.20
2019-05-18T07:42:52.572Z,39.47
2019-05-18T07:45:22.004Z,41.87
2019-05-18T07:47:51.445Z,40.17
2019-05-18T07:50:20.906Z,38.03
2019-05-18T07:52:55.130Z,39.00
2019-05-18T07:55:24.366Z,38.80
2019-05-18T07:57:56.550Z,38.33
2019-05-18T08:00:36.182Z,39.40
2019-05-18T08:03:05.678Z,35.40
2019-05-18T08:05:35.169Z,36.33
2019-05-18T08:08:04.467Z,36.13
2019-05-18T08:10:38.583Z,36.13
2019-05-18T08:13:09.226Z,33.00
2019-05-18T08:15:39.043Z,32.80
2019-05-18T08:18:08.322Z,38.03
2019-05-18T08:20:37.734Z,32.53
2019-05-18T08:23:08.447Z,32.90
2019-05-18T08:25:37.698Z,31.93
2019-05-18T08:28:07.118Z,32.50
2019-05-18T08:30:37.008Z,31.50
2019-05-18T08:33:06.535Z,28.80
2019-05-18T08:35:40.896Z,30.23
2019-05-18T08:38:32.256Z,30.50
2019-05-18T08:41:16.540Z,30.63
2019-05-18T08:43:46.116Z,28.97
2019-05-18T08:46:15.652Z,31.97
2019-05-18T08:48:44.943Z,31.10
2019-05-18T08:51:14.328Z,31.03
2019-05-18T08:53:43.698Z,32.80
2019-05-18T08:56:13.333Z,28.77
2019-05-18T08:58:42.867Z,34.13
2019-05-18T09:01:12.687Z,29.83
2019-05-18T09:03:47.381Z,32.33
2019-05-18T09:06:17.089Z,30.27
2019-05-18T09:08:46.955Z,30.07
2019-05-18T09:11:16.467Z,28.60
2019-05-18T09:13:46.026Z,30.13
2019-05-18T09:16:15.627Z,30.90
2019-05-18T09:18:47.575Z,30.50
2019-05-18T09:21:17.144Z,28.07
2019-05-18T09:23:46.691Z,27.77
2019-05-18T09:26:19.006Z,31.53
2019-05-18T09:28:48.476Z,26.00
2019-05-18T09:31:17.909Z,29.80
2019-05-18T09:33:50.090Z,29.70
2019-05-18T09:36:21.760Z,30.97
2019-05-18T09:39:07.999Z,29.93
2019-05-18T09:41:33.566Z,27.90
2019-05-18T09:44:13.655Z,26.03
2019-05-18T09:46:43.998Z,25.83
2019-05-18T09:49:15.337Z,28.30
2019-05-18T09:51:45.434Z,26.63
2019-05-18T09:54:15.260Z,27.30
2019-05-18T09:56:51.060Z,27.50
2019-05-18T09:59:30.415Z,25.70
2019-05-18T10:02:09.873Z,23.63
2019-05-18T10:04:45.853Z,26.27
2019-05-18T10:07:34.510Z,21.73
2019-05-18T10:10:14.798Z,22.83
2019-05-18T10:12:45.942Z,23.93
2019-05-18T10:15:39.951Z,26.07
2019-05-18T10:18:37.976Z,27.60
2019-05-18T10:21:17.474Z,24.90
2019-05-18T10:23:52.892Z,27.57
2019-05-18T10:26:24.455Z,24.80
2019-05-18T10:28:55.740Z,26.27
2019-05-18T10:31:25.611Z,23.30
2019-05-18T10:33:56.241Z,24.30
2019-05-18T10:36:26.307Z,25.77
2019-05-18T10:39:16.255Z,25.20
2019-05-18T10:41:52.108Z,26.43
2019-05-18T10:44:23.582Z,23.97
2019-05-18T10:47:00.113Z,21.73
2019-05-18T10:49:37.209Z,24.47
2019-05-18T10:52:06.052Z,24.82
2019-05-18T10:54:43.871Z,25.32
2019-05-18T10:57:16.798Z,24.27
2019-05-18T10:59:48.342Z,25.05
2019-05-18T11:02:17.866Z,25.72
2019-05-18T11:04:47.356Z,21.65
2019-05-18T11:07:19.351Z,22.67
2019-05-18T11:09:54.129Z,24.20
2019-05-18T11:12:27.869Z,26.85
2019-05-18T11:15:06.065Z,25.48
2019-05-18T11:17:37.614Z,25.80
2019-05-18T11:20:07.778Z,21.25
2019-05-18T11:22:37.406Z,24.90
2019-05-18T11:25:08.039Z,26.25
2019-05-18T11:27:37.785Z,24.07
2019-05-18T11:30:07.887Z,24.57
2019-05-18T11:32:41.856Z,22.70
2019-05-18T11:35:12.454Z,20.97
2019-05-18T11:37:41.975Z,22.67
2019-05-18T11:40:13.177Z,26.80
2019-05-18T11:42:49.091Z,23.55
2019-05-18T11:45:20.353Z,24.05
2019-05-18T11:47:58.073Z,25.25
2019-05-18T11:50:30.886Z,23.67
2019-05-18T11:53:07.034Z,25.10
2019-05-18T11:55:39.136Z,23.38
2019-05-18T11:58:15.334Z,26.20
2019-05-18T12:00:48.253Z,26.15
2019-05-18T12:03:18.648Z,24.70
2019-05-18T12:05:53.816Z,24.90
2019-05-18T12:08:26.332Z,27.15
2019-05-18T12:10:57.003Z,24.32
2019-05-18T12:13:35.684Z,22.07
2019-05-18T12:16:05.091Z,26.93
2019-05-18T12:18:37.723Z,26.75
2019-05-18T12:21:11.206Z,34.92
2019-05-18T12:23:40.801Z,30.70
2019-05-18T12:26:23.299Z,29.98
2019-05-18T12:28:53.066Z,32.75
2019-05-18T12:31:22.880Z,32.85
2019-05-18T12:33:53.003Z,35.38
2019-05-18T12:36:22.569Z,38.23
2019-05-18T12:38:52.083Z,34.35
2019-05-18T12:41:47.724Z,32.35
2019-05-18T12:44:17.319Z,37.30
2019-05-18T12:46:48.523Z,33.38
2019-05-18T12:49:21.508Z,36.50
2019-05-18T12:51:53.826Z,36.77
2019-05-18T12:54:30.807Z,35.97
2019-05-18T12:56:54.991Z,37.77
2019-05-18T12:59:26.707Z,35.67
2019-05-18T13:01:57.654Z,33.43
2019-05-18T13:04:27.028Z,38.80
2019-05-18T13:06:56.578Z,37.13
2019-05-18T13:09:27.876Z,39.83
2019-05-18T13:11:57.311Z,36.30
2019-05-18T13:14:28.083Z,39.13
2019-05-18T13:17:00.501Z,38.30
2019-05-18T13:19:33.260Z,38.83
2019-05-18T13:22:03.981Z,38.90
2019-05-18T13:24:44.898Z,37.83
2019-05-18T13:27:13.832Z,37.63
2019-05-18T13:29:50.447Z,37.55
2019-05-18T13:32:20.177Z,37.67
2019-05-18T13:34:51.351Z,39.58
2019-05-18T13:37:28.741Z,36.08
2019-05-18T13:39:58.618Z,38.80
2019-05-18T13:42:31.421Z,36.63
2019-05-18T13:45:02.900Z,42.80
2019-05-18T13:47:32.395Z,42.43
2019-05-18T13:50:02.032Z,36.45
2019-05-18T13:52:31.614Z,36.08
2019-05-18T13:55:04.496Z,37.40
2019-05-18T13:57:35.647Z,36.90
2019-05-18T14:00:07.200Z,36.98
2019-05-18T14:02:36.881Z,37.53
2019-05-18T14:05:12.332Z,39.15
2019-05-18T14:07:44.397Z,36.68
2019-05-18T14:10:14.205Z,41.60
2019-05-18T14:12:46.112Z,37.60
2019-05-18T14:15:15.819Z,36.90
2019-05-18T14:17:45.287Z,38.90
2019-05-18T14:20:31.967Z,39.65
2019-05-18T14:23:04.490Z,39.88
2019-05-18T14:25:37.661Z,39.30
2019-05-18T14:28:09.864Z,38.15
2019-05-18T14:30:43.489Z,38.38
2019-05-18T14:33:12.969Z,39.38
2019-05-18T14:35:45.661Z,38.55
2019-05-18T14:38:15.123Z,33.73
2019-05-18T14:40:46.068Z,43.10
2019-05-18T14:43:15.461Z,40.78
2019-05-18T14:45:45.054Z,36.25
2019-05-18T14:48:14.372Z,39.00
2019-05-18T14:50:45.076Z,43.13
2019-05-18T14:53:14.618Z,43.10
2019-05-18T14:55:44.153Z,40.73
2019-05-18T14:58:13.604Z,42.95
2019-05-18T15:00:43.373Z,39.60
2019-05-18T15:03:12.883Z,39.13
2019-05-18T15:05:42.292Z,40.58
2019-05-18T15:08:11.862Z,42.93
2019-05-18T15:10:41.305Z,43.15
2019-05-18T15:13:13.497Z,41.73
2019-05-18T15:15:42.747Z,45.38
2019-05-18T15:18:12.229Z,41.15
2019-05-18T15:20:41.830Z,45.30
2019-05-18T15:23:11.290Z,46.60
2019-05-18T15:25:50.145Z,44.37
2019-05-18T15:28:11.843Z,42.90
2019-05-18T15:30:41.156Z,43.83
2019-05-18T15:33:10.432Z,43.80
2019-05-18T15:35:39.787Z,46.83
2019-05-18T15:38:11.795Z,45.57
2019-05-18T15:40:41.171Z,45.87
2019-05-18T15:43:12.469Z,48.07
2019-05-18T15:45:41.874Z,45.80
2019-05-18T15:48:11.379Z,44.57
2019-05-18T15:50:40.905Z,44.33
2019-05-18T15:53:10.336Z,54.10
2019-05-18T15:55:39.876Z,47.43
2019-05-18T15:58:09.362Z,46.43
2019-05-18T16:00:38.918Z,50.33
2019-05-18T16:03:13.055Z,50.27
2019-05-18T16:05:42.516Z,51.87
2019-05-18T16:08:11.897Z,46.20
2019-05-18T16:10:41.167Z,49.83
2019-05-18T16:13:10.467Z,51.93
2019-05-18T16:15:39.783Z,47.17
2019-05-18T16:18:09.080Z,48.10
2019-05-18T16:20:38.405Z,52.77
2019-05-18T16:23:07.764Z,46.37
2019-05-18T16:25:39.285Z,46.70
2019-05-18T16:28:16.038Z,43.57
2019-05-18T16:30:45.858Z,51.27
2019-05-18T16:33:15.744Z,45.77
2019-05-18T16:35:46.020Z,47.60
2019-05-18T16:38:15.484Z,47.40
2019-05-18T16:40:45.037Z,46.37
2019-05-18T16:43:14.686Z,44.47
2019-05-18T16:45:50.192Z,44.57
2019-05-18T16:48:19.845Z,42.07
2019-05-18T16:50:51.509Z,40.97
2019-05-18T16:53:20.863Z,43.97
2019-05-18T16:55:53.547Z,40.97
2019-05-18T16:58:30.261Z,42.00
2019-05-18T17:00:59.652Z,43.90
2019-05-18T17:03:36.534Z,42.90
2019-05-18T17:06:12.225Z,43.97
2019-05-18T17:08:41.697Z,41.80
2019-05-18T17:11:11.208Z,39.73
2019-05-18T17:13:40.545Z,40.13
2019-05-18T17:16:09.897Z,40.47
2019-05-18T17:18:39.299Z,39.77
2019-05-18T17:21:11.273Z,40.90
2019-05-18T17:23:45.649Z,41.03
2019-05-18T17:26:16.287Z,43.13
2019-05-18T17:28:48.507Z,40.87
2019-05-18T17:31:20.845Z,42.43
2019-05-18T17:33:50.220Z,40.43
2019-05-18T17:36:21.072Z,44.60
2019-05-18T17:38:52.913Z,45.10
2019-05-18T17:41:25.880Z,45.77
2019-05-18T17:43:55.289Z,47.87
2019-05-18T17:46:24.689Z,48.43
2019-05-18T17:48:54.022Z,46.17
2019-05-18T17:51:23.263Z,46.20
2019-05-18T17:53:54.264Z,46.53
2019-05-18T17:56:23.511Z,46.07
2019-05-18T17:58:52.963Z,48.73
2019-05-18T18:01:22.351Z,47.23
2019-05-18T18:03:51.709Z,46.13
2019-05-18T18:06:21.010Z,47.07
2019-05-18T18:08:50.213Z,52.30
2019-05-18T18:11:19.406Z,46.53
2019-05-18T18:13:48.723Z,44.23
2019-05-18T18:16:18.083Z,45.43
2019-05-18T18:18:47.469Z,45.10
2019-05-18T18:21:18.638Z,43.23
2019-05-18T18:23:54.201Z,40.23
2019-05-18T18:26:19.134Z,40.27
2019-05-18T18:28:48.462Z,39.73
2019-05-18T18:31:17.810Z,38.63
2019-05-18T18:33:47.001Z,41.73
2019-05-18T18:36:16.300Z,37.73
2019-05-18T18:38:45.612Z,38.17
2019-05-18T18:41:16.624Z,37.50
2019-05-18T18:43:47.976Z,37.10
2019-05-18T18:46:17.345Z,35.70
2019-05-18T18:48:46.615Z,39.00
2019-05-18T18:51:16.295Z,42.23
2019-05-18T18:53:45.574Z,36.33
2019-05-18T18:56:18.382Z,39.57
2019-05-18T18:58:47.856Z,37.83
2019-05-18T19:01:17.179Z,39.97
2019-05-18T19:03:46.620Z,39.23
2019-05-18T19:06:15.871Z,40.60
2019-05-18T19:08:45.074Z,38.50
2019-05-18T19:11:14.443Z,42.53
2019-05-18T19:13:45.855Z,40.50
2019-05-18T19:16:14.846Z,42.57
2019-05-18T19:18:44.278Z,46.07
2019-05-18T19:21:13.558Z,47.83
2019-05-18T19:23:42.853Z,40.37
2019-05-18T19:26:12.263Z,43.57
2019-05-18T19:28:42.343Z,40.37
2019-05-18T19:31:11.546Z,45.30
2019-05-18T19:33:40.988Z,45.40
2019-05-18T19:36:10.265Z,44.33
2019-05-18T19:38:39.596Z,44.70
2019-05-18T19:41:08.835Z,43.73
2019-05-18T19:43:38.122Z,47.47
2019-05-18T19:46:07.428Z,43.93
2019-05-18T19:48:36.855Z,46.00
2019-05-18T19:51:06.091Z,46.47
2019-05-18T19:53:35.503Z,50.70
2019-05-18T19:56:04.720Z,47.33
2019-05-18T19:58:34.112Z,45.33
2019-05-18T20:01:03.411Z,39.93
2019-05-18T20:03:32.869Z,51.23
2019-05-18T20:06:02.243Z,45.47
2019-05-18T20:08:31.453Z,46.73
2019-05-18T20:11:00.789Z,49.97
2019-05-18T20:13:30.187Z,51.40
2019-05-18T20:15:59.463Z,51.07
2019-05-18T20:18:28.889Z,50.87
2019-05-18T20:20:58.241Z,48.33
2019-05-18T20:23:27.543Z,48.73
2019-05-18T20:25:56.948Z,51.97
2019-05-18T20:28:26.145Z,49.17
2019-05-18T20:30:55.459Z,51.60
2019-05-18T20:33:24.790Z,46.93
2019-05-18T20:35:54.061Z,49.33
2019-05-18T20:38:23.347Z,46.27
2019-05-18T20:40:52.686Z,45.20
2019-05-18T20:43:22.019Z,47.43
2019-05-18T20:45:52.433Z,51.00
2019-05-18T20:48:21.873Z,50.57
2019-05-18T20:50:51.211Z,48.13
2019-05-18T20:53:20.483Z,48.43
2019-05-18T20:55:49.915Z,53.47
2019-05-18T20:58:19.269Z,53.40
2019-05-18T21:00:54.312Z,48.90
2019-05-18T21:03:23.881Z,51.30
2019-05-18T21:05:53.326Z,52.07
2019-05-18T21:08:22.807Z,49.07
2019-05-18T21:10:52.229Z,48.53
2019-05-18T21:13:21.564Z,54.00
2019-05-18T21:15:50.947Z,50.67
2019-05-18T21:18:20.368Z,51.40
2019-05-18T21:20:49.610Z,51.63
2019-05-18T21:23:18.886Z,51.73
2019-05-18T21:25:48.052Z,56.80
2019-05-18T21:28:17.413Z,54.37
2019-05-18T21:30:46.806Z,52.97
2019-05-18T21:33:16.130Z,57.73
2019-05-18T21:35:46.608Z,54.57
2019-05-18T21:38:19.870Z,58.50
2019-05-18T21:40:49.174Z,54.37
2019-05-18T21:43:18.409Z,56.17
2019-05-18T21:45:47.637Z,64.40
2019-05-18T21:48:16.914Z,56.10
2019-05-18T21:50:46.959Z,59.13
2019-05-18T21:53:16.402Z,58.17
2019-05-18T21:55:45.801Z,57.30
2019-05-18T21:58:15.133Z,62.43
2019-05-18T22:00:47.456Z,60.53
2019-05-18T22:03:16.784Z,58.10
2019-05-18T22:05:47.749Z,61.47
2019-05-18T22:08:17.047Z,62.57
2019-05-18T22:10:46.407Z,59.70
2019-05-18T22:13:15.625Z,62.80
2019-05-18T22:15:44.986Z,61.33
2019-05-18T22:18:23.985Z,64.87
2019-05-18T22:20:45.209Z,62.60
2019-05-18T22:23:14.602Z,62.73
2019-05-18T22:25:43.956Z,59.13
2019-05-18T22:28:13.341Z,62.07
2019-05-18T22:30:42.729Z,65.03
2019-05-18T22:33:14.142Z,63.23
2019-05-18T22:35:43.491Z,62.37
2019-05-18T22:38:12.672Z,62.43
2019-05-18T22:40:41.958Z,64.40
2019-05-18T22:43:11.283Z,59.90
2019-05-18T22:45:40.570Z,61.50
2019-05-18T22:48:09.948Z,64.77
2019-05-18T22:50:39.232Z,65.17
2019-05-18T22:53:08.410Z,66.53
2019-05-18T22:55:37.918Z,67.40
2019-05-18T22:58:07.194Z,62.37
2019-05-18T23:00:36.575Z,66.17
2019-05-18T23:03:05.903Z,68.57
2019-05-18T23:05:35.375Z,61.70
2019-05-18T23:08:04.590Z,61.87
2019-05-18T23:10:33.882Z,68.77
2019-05-18T23:13:03.263Z,64.07
2019-05-18T23:15:32.588Z,64.83
2019-05-18T23:18:01.985Z,57.30
2019-05-18T23:20:31.232Z,67.17
2019-05-18T23:23:00.607Z,66.40
2019-05-18T23:25:29.908Z,65.93
2019-05-18T23:27:59.320Z,66.97
2019-05-18T23:30:28.667Z,70.90
2019-05-18T23:32:58.059Z,68.77
2019-05-18T23:35:27.361Z,67.17
2019-05-18T23:37:56.687Z,70.17
2019-05-18T23:40:25.974Z,66.23
2019-05-18T23:42:55.369Z,68.53
2019-05-18T23:45:24.760Z,68.93
2019-05-18T23:47:54.124Z,65.77
2019-05-18T23:50:23.492Z,64.03
2019-05-18T23:52:54.303Z,71.93
2019-05-18T23:55:23.593Z,71.77
2019-05-18T23:57:52.897Z,64.77
